Time;durP1;ratioP1;P1;durP2;ratioP2;P2;SDS_P1;SDS_P2;PMS_P1;PMS_P2;Temp;Humidity;BMP_temperature;BMP_pressure;BME280_temperature;BME280_humidity;BME280_pressure;Samples;Min_cycle;Max_cycle;Signal;HPM_P1;HPM_P2
2021/04/15 00:00:59;;;;;;;;;;;5.20;66.20;;;;;;4934606;29;19910;-88
2021/04/15 00:03:26;;;;;;;;;;;5.20;66.20;;;;;;4959156;28;20265;-89
2021/04/15 00:05:52;;;;;;;;;;;5.10;66.20;;;;;;4930704;29;19911;-87
2021/04/15 00:08:19;;;;;;;;;;;5.10;66.50;;;;;;4928429;29;20277;-87
2021/04/15 00:10:47;;;;;;;;;;;5.10;66.60;;;;;;4927232;29;20346;-87
2021/04/15 00:13:18;;;;;;;;;;;5.10;66.80;;;;;;4924076;28;19911;-87
2021/04/15 00:15:44;;;;;;;;;;;5.00;67.00;;;;;;4936451;29;19922;-88
2021/04/15 00:18:10;;;;;;;;;;;5.00;67.30;;;;;;4938833;29;20268;-86
2021/04/15 00:20:35;;;;;;;;;;;5.00;67.20;;;;;;4933690;28;19910;-87
2021/04/15 00:23:01;;;;;;;;;;;5.00;67.20;;;;;;4939867;29;19925;-89
2021/04/15 00:25:26;;;;;;;;;;;5.00;67.20;;;;;;4924085;28;19911;-88
2021/04/15 00:27:52;;;;;;;;;;;5.00;67.30;;;;;;4934604;29;19937;-88
2021/04/15 00:30:18;;;;;;;;;;;5.00;67.30;;;;;;4931088;29;19910;-88
2021/04/15 00:32:44;;;;;;;;;;;5.00;67.30;;;;;;4930859;28;20033;-87
2021/04/15 00:35:10;;;;;;;;;;;5.00;67.70;;;;;;4933329;29;20005;-88
2021/04/15 00:37:35;;;;;;;;;;;5.00;68.10;;;;;;4935985;29;19911;-88
2021/04/15 00:40:01;;;;;;;;;;;4.90;68.40;;;;;;4938891;28;19911;-87
2021/04/15 00:42:26;;;;;;;;;;;4.90;68.50;;;;;;4937087;29;19925;-88
2021/04/15 00:44:55;;;;;;;;;;;4.90;68.50;;;;;;4937606;28;20358;-88
2021/04/15 00:47:27;;;;;;;;;;;4.90;68.80;;;;;;4929497;29;19910;-88
2021/04/15 00:49:57;;;;;;;;;;;4.90;69.20;;;;;;4927825;29;19939;-87
2021/04/15 00:52:24;;;;;;;;;;;4.80;69.40;;;;;;4945612;29;19993;-87
2021/04/15 00:54:49;;;;;;;;;;;4.80;69.80;;;;;;4935191;28;19968;-87
2021/04/15 00:57:20;;;;;;;;;;;4.80;70.60;;;;;;4936121;29;20362;-87
2021/04/15 00:59:45;;;;;;;;;;;4.70;70.50;;;;;;4932337;29;19911;-86
2021/04/15 01:02:12;;;;;;;;;;;4.70;70.40;;;;;;4926938;29;20013;-87
2021/04/15 01:04:38;;;;;;;;;;;4.80;70.40;;;;;;4933155;29;19954;-87
2021/04/15 01:07:04;;;;;;;;;;;4.80;70.40;;;;;;4934196;29;20328;-87
2021/04/15 01:09:29;;;;;;;;;;;4.80;70.60;;;;;;4941582;28;20001;-86
2021/04/15 01:12:17;;;;;;;;;;;4.80;70.80;;;;;;4934135;29;19910;-88
2021/04/15 01:15:02;;;;;;;;;;;4.80;70.70;;;;;;4940237;28;20285;-87
2021/04/15 01:17:45;;;;;;;;;;;4.90;70.50;;;;;;4929188;28;19911;-87
2021/04/15 01:20:25;;;;;;;;;;;4.90;70.40;;;;;;4942874;29;19916;-88
2021/04/15 01:23:09;;;;;;;;;;;5.00;70.50;;;;;;4943317;29;19919;-87
2021/04/15 01:25:41;;;;;;;;;;;5.00;70.30;;;;;;4935904;28;19910;-87
2021/04/15 01:28:17;;;;;;;;;;;5.00;70.60;;;;;;4931750;29;20007;-86
2021/04/15 01:30:45;;;;;;;;;;;4.90;70.60;;;;;;4947647;29;20289;-86
2021/04/15 01:33:33;;;;;;;;;;;5.00;70.70;;;;;;4933108;29;19918;-87
2021/04/15 01:36:04;;;;;;;;;;;5.00;70.50;;;;;;4914556;29;19961;-87
2021/04/15 01:38:32;;;;;;;;;;;5.00;70.50;;;;;;4942025;28;19915;-87
2021/04/15 01:41:03;;;;;;;;;;;5.00;70.50;;;;;;4937450;28;19917;-87
2021/04/15 01:43:29;;;;;;;;;;;5.00;70.50;;;;;;4933368;29;19926;-87
2021/04/15 01:45:55;;;;;;;;;;;5.00;70.50;;;;;;4945220;29;19919;-87
2021/04/15 01:48:23;;;;;;;;;;;5.00;70.50;;;;;;4922655;29;20021;-87
2021/04/15 01:50:56;;;;;;;;;;;5.00;70.50;;;;;;4935328;29;19958;-87
2021/04/15 01:53:28;;;;;;;;;;;5.00;70.50;;;;;;4932084;29;19911;-87
2021/04/15 01:55:56;;;;;;;;;;;5.00;70.40;;;;;;4942767;28;19911;-87
2021/04/15 01:58:35;;;;;;;;;;;5.00;70.40;;;;;;4926791;29;19922;-86
2021/04/15 02:01:06;;;;;;;;;;;5.00;70.40;;;;;;4936634;29;20415;-87
2021/04/15 02:03:34;;;;;;;;;;;5.10;70.40;;;;;;4936492;28;19918;-86
2021/04/15 02:06:02;;;;;;;;;;;5.00;70.20;;;;;;4939793;29;20654;-87
2021/04/15 02:08:30;;;;;;;;;;;5.00;70.20;;;;;;4943977;29;20069;-85
2021/04/15 02:11:04;;;;;;;;;;;5.10;70.30;;;;;;4955894;28;19918;-87
2021/04/15 02:13:32;;;;;;;;;;;5.10;70.20;;;;;;4920344;29;20776;-86
2021/04/15 02:16:03;;;;;;;;;;;5.10;70.30;;;;;;4934207;28;19927;-86
2021/04/15 02:18:40;;;;;;;;;;;5.10;70.20;;;;;;4930113;29;20367;-86
2021/04/15 02:21:09;;;;;;;;;;;5.10;70.00;;;;;;4934830;29;19911;-86
2021/04/15 02:23:38;;;;;;;;;;;5.20;70.10;;;;;;4931397;28;19922;-86
2021/04/15 02:26:10;;;;;;;;;;;5.10;70.00;;;;;;4939794;28;20301;-85
2021/04/15 02:28:48;;;;;;;;;;;5.20;70.10;;;;;;4935875;29;20285;-86
2021/04/15 02:31:18;;;;;;;;;;;5.20;70.00;;;;;;4933457;29;19950;-86
2021/04/15 02:33:44;;;;;;;;;;;5.20;70.00;;;;;;4945999;29;19907;-86
2021/04/15 02:36:10;;;;;;;;;;;5.20;70.00;;;;;;4924535;28;19922;-86
2021/04/15 02:38:41;;;;;;;;;;;5.20;70.10;;;;;;4931397;29;19907;-87
2021/04/15 02:41:07;;;;;;;;;;;5.20;70.10;;;;;;4935964;29;20365;-88
2021/04/15 02:43:38;;;;;;;;;;;5.30;70.20;;;;;;4930352;28;19915;-87
2021/04/15 02:46:06;;;;;;;;;;;5.30;70.20;;;;;;4930818;29;20409;-88
2021/04/15 02:48:35;;;;;;;;;;;5.30;70.10;;;;;;4931283;29;20013;-87
2021/04/15 02:51:03;;;;;;;;;;;5.30;70.10;;;;;;4936409;29;19921;-87
2021/04/15 02:53:32;;;;;;;;;;;5.30;70.00;;;;;;4934324;29;20368;-87
2021/04/15 02:56:05;;;;;;;;;;;5.30;70.10;;;;;;4929226;29;19965;-87
2021/04/15 02:58:35;;;;;;;;;;;5.30;70.20;;;;;;4953575;29;19973;-87
2021/04/15 03:01:01;;;;;;;;;;;5.30;70.20;;;;;;4942333;29;19911;-87
2021/04/15 03:03:34;;;;;;;;;;;5.30;70.20;;;;;;4934730;29;19925;-87
2021/04/15 03:06:09;;;;;;;;;;;5.30;70.10;;;;;;4925438;29;19915;-87
2021/04/15 03:08:36;;;;;;;;;;;5.30;70.10;;;;;;4927659;29;19945;-87
2021/04/15 03:11:04;;;;;;;;;;;5.40;70.30;;;;;;4924346;29;19957;-88
2021/04/15 03:13:32;;;;;;;;;;;5.30;70.20;;;;;;4938278;29;19921;-88
2021/04/15 03:15:59;;;;;;;;;;;5.30;70.30;;;;;;4931297;29;19918;-88
2021/04/15 03:18:34;;;;;;;;;;;5.20;70.40;;;;;;4937426;29;20358;-88
2021/04/15 03:21:04;;;;;;;;;;;5.20;70.50;;;;;;4940862;28;20333;-88
2021/04/15 03:23:51;;;;;;;;;;;5.10;70.60;;;;;;4931779;29;20087;-88
2021/04/15 03:26:20;;;;;;;;;;;5.00;70.70;;;;;;4939027;29;19911;-90
2021/04/15 03:28:50;;;;;;;;;;;4.90;70.90;;;;;;4949963;28;20361;-88
2021/04/15 03:31:22;;;;;;;;;;;4.80;71.10;;;;;;4937644;28;20002;-86
2021/04/15 03:34:06;;;;;;;;;;;4.80;71.30;;;;;;4932394;29;19919;-85
2021/04/15 03:36:37;;;;;;;;;;;4.70;71.40;;;;;;4931943;29;19914;-86
2021/04/15 03:39:08;;;;;;;;;;;4.60;71.40;;;;;;4943392;29;20088;-87
2021/04/15 03:41:41;;;;;;;;;;;4.60;71.40;;;;;;4938084;29;19917;-87
2021/04/15 03:44:18;;;;;;;;;;;4.60;71.50;;;;;;4925979;28;20267;-87
2021/04/15 03:46:50;;;;;;;;;;;4.60;71.50;;;;;;4934397;29;20665;-87
2021/04/15 03:49:22;;;;;;;;;;;4.50;71.40;;;;;;4932021;29;19915;-90
2021/04/15 03:51:58;;;;;;;;;;;4.50;71.40;;;;;;4956688;28;19911;-89
2021/04/15 03:54:29;;;;;;;;;;;4.50;71.70;;;;;;4933584;29;19910;-89
2021/04/15 03:56:56;;;;;;;;;;;4.50;71.70;;;;;;4933932;29;19918;-88
2021/04/15 03:59:40;;;;;;;;;;;4.40;71.60;;;;;;4927993;29;19911;-88
2021/04/15 04:02:11;;;;;;;;;;;4.40;71.60;;;;;;4933706;28;19963;-86
2021/04/15 04:04:39;;;;;;;;;;;4.40;71.70;;;;;;4932732;29;19981;-88
2021/04/15 04:07:09;;;;;;;;;;;4.40;71.70;;;;;;4945196;28;20361;-90
2021/04/15 04:09:41;;;;;;;;;;;4.40;71.70;;;;;;4939345;28;20346;-89
2021/04/15 04:12:08;;;;;;;;;;;4.40;71.70;;;;;;4944933;28;20324;-89
2021/04/15 04:14:43;;;;;;;;;;;4.40;71.70;;;;;;4936873;28;19911;-89
2021/04/15 04:17:14;;;;;;;;;;;4.40;71.60;;;;;;4931142;29;19997;-89
2021/04/15 04:19:53;;;;;;;;;;;4.40;71.50;;;;;;4932471;29;19962;-88
2021/04/15 04:22:22;;;;;;;;;;;4.40;71.60;;;;;;4942672;29;19933;-89
2021/04/15 04:24:57;;;;;;;;;;;4.30;71.60;;;;;;4938951;29;19925;-88
2021/04/15 04:27:27;;;;;;;;;;;4.30;71.60;;;;;;4934228;29;20353;-88
2021/04/15 04:29:55;;;;;;;;;;;4.30;71.80;;;;;;4937717;28;19910;-88
2021/04/15 04:32:22;;;;;;;;;;;4.20;71.80;;;;;;4948199;29;19919;-89
2021/04/15 04:34:55;;;;;;;;;;;4.20;71.80;;;;;;4928336;29;19910;-88
2021/04/15 04:37:33;;;;;;;;;;;4.20;71.90;;;;;;4930226;29;20450;-87
2021/04/15 04:40:00;;;;;;;;;;;4.20;72.00;;;;;;4932424;29;19979;-86
2021/04/15 04:42:27;;;;;;;;;;;4.10;72.00;;;;;;4943498;28;19914;-89
2021/04/15 04:44:55;;;;;;;;;;;4.10;72.20;;;;;;4934732;29;19937;-89
2021/04/15 04:47:41;;;;;;;;;;;4.10;72.20;;;;;;4935222;28;19911;-88
2021/04/15 04:50:18;;;;;;;;;;;4.10;72.10;;;;;;4907507;29;20431;-88
2021/04/15 04:52:44;;;;;;;;;;;4.20;72.10;;;;;;4929976;29;20334;-86
2021/04/15 04:55:20;;;;;;;;;;;4.30;72.00;;;;;;4935770;28;19946;-87
2021/04/15 04:57:46;;;;;;;;;;;4.20;72.20;;;;;;4944923;29;19940;-88
2021/04/15 05:00:11;;;;;;;;;;;4.20;72.10;;;;;;4937351;29;19951;-87
2021/04/15 05:02:37;;;;;;;;;;;4.20;72.10;;;;;;4961467;28;20148;-88
2021/04/15 05:05:05;;;;;;;;;;;4.30;72.00;;;;;;4931701;28;20061;-88
2021/04/15 05:07:32;;;;;;;;;;;4.30;71.90;;;;;;4940298;28;19914;-88
2021/04/15 05:09:57;;;;;;;;;;;4.30;71.80;;;;;;4942371;28;19930;-88
2021/04/15 05:12:26;;;;;;;;;;;4.40;71.90;;;;;;4933680;29;19911;-89
2021/04/15 05:14:52;;;;;;;;;;;4.40;71.80;;;;;;4931890;29;19911;-88
2021/04/15 05:17:30;;;;;;;;;;;4.40;71.70;;;;;;4939649;28;19911;-88
2021/04/15 05:19:57;;;;;;;;;;;4.50;71.80;;;;;;4949990;28;20425;-88
2021/04/15 05:22:27;;;;;;;;;;;4.50;71.70;;;;;;4944150;29;19921;-89
2021/04/15 05:24:56;;;;;;;;;;;4.50;71.60;;;;;;4940035;28;20018;-86
2021/04/15 05:27:23;;;;;;;;;;;4.50;71.70;;;;;;4940515;29;20393;-90
2021/04/15 05:29:53;;;;;;;;;;;4.60;71.80;;;;;;4939310;29;19907;-90
2021/04/15 05:32:19;;;;;;;;;;;4.70;71.80;;;;;;4941008;29;19910;-90
2021/04/15 05:34:53;;;;;;;;;;;4.70;71.60;;;;;;4940962;29;20269;-90
2021/04/15 05:37:24;;;;;;;;;;;4.80;71.50;;;;;;4956864;28;20518;-90
2021/04/15 05:39:52;;;;;;;;;;;4.80;71.40;;;;;;4938186;29;19910;-90
2021/04/15 05:42:17;;;;;;;;;;;4.90;71.50;;;;;;4946526;29;20361;-91
2021/04/15 05:44:48;;;;;;;;;;;5.00;71.30;;;;;;4939090;29;19990;-87
2021/04/15 05:47:33;;;;;;;;;;;5.10;71.10;;;;;;4947564;28;20250;-89
2021/04/15 05:50:05;;;;;;;;;;;5.30;70.90;;;;;;4956737;28;19910;-91
2021/04/15 05:52:35;;;;;;;;;;;5.50;70.60;;;;;;4933854;29;20013;-90
2021/04/15 05:55:24;;;;;;;;;;;5.70;70.30;;;;;;4939500;29;19919;-88
2021/04/15 05:57:51;;;;;;;;;;;5.90;69.90;;;;;;4924406;29;19969;-89
2021/04/15 06:00:23;;;;;;;;;;;7.00;69.50;;;;;;4945769;29;19949;-90
2021/04/15 06:02:52;;;;;;;;;;;8.50;66.90;;;;;;4942795;29;19918;-88
2021/04/15 06:05:17;;;;;;;;;;;10.00;63.50;;;;;;4938039;29;20365;-89
2021/04/15 06:07:43;;;;;;;;;;;11.10;60.80;;;;;;4951678;28;19961;-91
2021/04/15 06:10:10;;;;;;;;;;;11.90;58.90;;;;;;4945193;29;19915;-90
2021/04/15 06:12:46;;;;;;;;;;;11.90;57.80;;;;;;4940273;29;19910;-87
2021/04/15 06:15:14;;;;;;;;;;;11.40;58.40;;;;;;4945900;28;19914;-88
2021/04/15 06:17:43;;;;;;;;;;;11.40;58.50;;;;;;4938258;29;20389;-87
2021/04/15 06:20:08;;;;;;;;;;;11.40;58.30;;;;;;4944594;28;19945;-88
2021/04/15 06:22:37;;;;;;;;;;;12.10;58.20;;;;;;4944396;28;20345;-84
2021/04/15 06:25:14;;;;;;;;;;;13.60;55.70;;;;;;4934916;28;19954;-85
2021/04/15 06:27:40;;;;;;;;;;;15.00;53.20;;;;;;4947385;29;19918;-85
2021/04/15 06:30:25;;;;;;;;;;;15.70;50.90;;;;;;4944021;29;20292;-84
2021/04/15 06:32:56;;;;;;;;;;;16.10;50.20;;;;;;4940265;28;19911;-84
2021/04/15 06:35:24;;;;;;;;;;;16.70;49.40;;;;;;4947870;29;20281;-84
2021/04/15 06:37:52;;;;;;;;;;;16.10;49.30;;;;;;4944723;28;20401;-85
2021/04/15 06:40:36;;;;;;;;;;;14.70;50.80;;;;;;4943646;29;19912;-85
2021/04/15 06:43:12;;;;;;;;;;;13.10;52.90;;;;;;4939415;28;19922;-85
2021/04/15 06:45:38;;;;;;;;;;;11.60;55.60;;;;;;4956566;28;19942;-86
2021/04/15 06:48:22;;;;;;;;;;;10.60;58.30;;;;;;4943465;29;20004;-85
2021/04/15 06:50:47;;;;;;;;;;;10.40;60.30;;;;;;4942007;28;19910;-85
2021/04/15 06:53:37;;;;;;;;;;;11.30;58.90;;;;;;4933434;29;20006;-86
2021/04/15 06:56:21;;;;;;;;;;;11.50;57.80;;;;;;4942107;29;19945;-87
2021/04/15 06:58:56;;;;;;;;;;;11.80;57.60;;;;;;4934832;29;20361;-85
2021/04/15 07:01:45;;;;;;;;;;;12.30;56.10;;;;;;4934742;29;19911;-86
2021/04/15 07:04:23;;;;;;;;;;;11.90;56.00;;;;;;4939006;28;19981;-86
2021/04/15 07:06:48;;;;;;;;;;;11.20;56.70;;;;;;4941400;29;19910;-94
2021/04/15 07:09:20;;;;;;;;;;;11.60;57.80;;;;;;4958982;28;20374;-86
2021/04/15 07:12:04;;;;;;;;;;;13.30;55.80;;;;;;4944319;29;19910;-88
2021/04/15 07:14:35;;;;;;;;;;;15.10;52.20;;;;;;4938840;29;19959;-93
2021/04/15 07:17:16;;;;;;;;;;;15.70;50.00;;;;;;4962323;28;19910;-95
2021/04/15 07:19:51;;;;;;;;;;;15.60;49.30;;;;;;4951515;29;20541;-90
2021/04/15 07:22:31;;;;;;;;;;;14.40;50.30;;;;;;4957773;28;19919;-96
2021/04/15 07:25:15;;;;;;;;;;;14.50;51.10;;;;;;4963948;28;19926;-94
2021/04/15 07:27:40;;;;;;;;;;;14.30;50.30;;;;;;4962571;28;19918;-96
2021/04/15 07:30:10;;;;;;;;;;;13.10;51.10;;;;;;4960281;29;19920;-93
2021/04/15 07:32:52;;;;;;;;;;;12.40;52.90;;;;;;4964121;28;19919;-96
2021/04/15 07:35:37;;;;;;;;;;;11.60;54.40;;;;;;4965353;28;19961;-93
2021/04/15 07:38:21;;;;;;;;;;;10.50;56.80;;;;;;4938457;29;20045;-91
2021/04/15 07:40:52;;;;;;;;;;;9.50;58.90;;;;;;4946273;29;19911;-90
2021/04/15 07:43:27;;;;;;;;;;;9.30;60.80;;;;;;4939967;29;19977;-91
2021/04/15 07:46:05;;;;;;;;;;;9.30;61.00;;;;;;4941276;29;19910;-92
2021/04/15 07:48:36;;;;;;;;;;;9.20;61.40;;;;;;4943205;29;19910;-91
2021/04/15 07:51:05;;;;;;;;;;;8.90;62.00;;;;;;4941949;29;19911;-92
2021/04/15 07:53:45;;;;;;;;;;;8.80;62.70;;;;;;4941652;29;20034;-89
2021/04/15 07:56:26;;;;;;;;;;;8.70;63.10;;;;;;4948333;28;19946;-93
2021/04/15 07:59:07;;;;;;;;;;;9.10;63.20;;;;;;4951820;28;19918;-91
2021/04/15 08:01:32;;;;;;;;;;;9.10;62.40;;;;;;4949784;29;20000;-91
2021/04/15 08:04:13;;;;;;;;;;;8.80;63.10;;;;;;4955809;28;20397;-88
2021/04/15 08:06:57;;;;;;;;;;;8.60;63.40;;;;;;4965862;28;19916;-96
2021/04/15 08:09:31;;;;;;;;;;;8.50;63.70;;;;;;4959101;28;19914;-91
2021/04/15 08:12:14;;;;;;;;;;;8.50;63.90;;;;;;4925407;29;19973;-92
2021/04/15 08:14:50;;;;;;;;;;;8.40;64.00;;;;;;4938415;28;20050;-93
2021/04/15 08:17:28;;;;;;;;;;;8.30;64.40;;;;;;4938902;29;20020;-93
2021/04/15 08:19:56;;;;;;;;;;;8.20;64.50;;;;;;4956508;28;19906;-94
2021/04/15 08:22:23;;;;;;;;;;;8.20;64.70;;;;;;4972259;28;20376;-92
2021/04/15 08:25:07;;;;;;;;;;;8.00;65.10;;;;;;4942537;29;19950;-89
2021/04/15 08:27:41;;;;;;;;;;;7.90;65.60;;;;;;4948133;28;19915;-89
2021/04/15 08:30:17;;;;;;;;;;;7.70;65.70;;;;;;4939147;29;20337;-89
2021/04/15 08:33:01;;;;;;;;;;;7.60;67.10;;;;;;4947257;28;20498;-89
2021/04/15 08:35:26;;;;;;;;;;;7.60;66.80;;;;;;4939397;29;20361;-89
2021/04/15 08:38:21;;;;;;;;;;;7.60;66.40;;;;;;4941986;29;19926;-89
2021/04/15 08:41:06;;;;;;;;;;;7.70;66.30;;;;;;4922108;29;20427;-89
2021/04/15 08:43:34;;;;;;;;;;;7.60;66.60;;;;;;4933627;29;19922;-88
2021/04/15 08:46:03;;;;;;;;;;;7.80;66.40;;;;;;4939645;28;20018;-89
2021/04/15 08:48:37;;;;;;;;;;;7.80;66.10;;;;;;4950078;28;20489;-88
2021/04/15 08:51:08;;;;;;;;;;;7.90;65.70;;;;;;4933550;29;20349;-88
2021/04/15 08:53:37;;;;;;;;;;;8.00;65.30;;;;;;4922768;29;19921;-86
2021/04/15 08:56:11;;;;;;;;;;;8.00;65.10;;;;;;4932468;29;19950;-87
2021/04/15 08:58:46;;;;;;;;;;;8.00;64.90;;;;;;4936042;29;20502;-89
2021/04/15 09:01:11;;;;;;;;;;;8.10;64.60;;;;;;4957128;28;20363;-86
2021/04/15 09:03:51;;;;;;;;;;;8.20;64.30;;;;;;4943009;29;20013;-89
2021/04/15 09:06:35;;;;;;;;;;;8.30;64.20;;;;;;4935017;29;19914;-87
2021/04/15 09:09:00;;;;;;;;;;;8.40;63.90;;;;;;4934712;28;19993;-86
2021/04/15 09:11:46;;;;;;;;;;;8.40;63.60;;;;;;4943044;28;20400;-87
2021/04/15 09:14:31;;;;;;;;;;;8.50;63.60;;;;;;4928155;29;20377;-85
2021/04/15 09:17:07;;;;;;;;;;;8.60;63.30;;;;;;4933038;29;19913;-87
2021/04/15 09:19:39;;;;;;;;;;;8.60;63.20;;;;;;4935454;29;19919;-86
2021/04/15 09:22:27;;;;;;;;;;;8.60;63.10;;;;;;4934583;29;20013;-85
2021/04/15 09:25:19;;;;;;;;;;;8.50;63.20;;;;;;4942931;29;20313;-86
2021/04/15 09:27:45;;;;;;;;;;;8.50;63.00;;;;;;4917862;29;19910;-86
2021/04/15 09:30:28;;;;;;;;;;;8.60;63.00;;;;;;4932544;29;19913;-87
2021/04/15 09:33:26;;;;;;;;;;;8.50;62.90;;;;;;4937776;29;20391;-88
2021/04/15 09:35:51;;;;;;;;;;;8.50;62.80;;;;;;4903024;29;19928;-87
2021/04/15 09:38:31;;;;;;;;;;;8.20;62.10;;;;;;4942518;29;20380;-88
2021/04/15 09:40:57;;;;;;;;;;;8.00;62.80;;;;;;4950721;29;19910;-86
2021/04/15 09:43:37;;;;;;;;;;;7.80;63.50;;;;;;4937370;29;20345;-86
2021/04/15 09:46:13;;;;;;;;;;;7.90;63.90;;;;;;4938869;28;20356;-86
2021/04/15 09:48:50;;;;;;;;;;;8.00;63.70;;;;;;4942972;28;19914;-87
2021/04/15 09:51:34;;;;;;;;;;;8.10;63.50;;;;;;4953230;28;19990;-88
2021/04/15 09:54:22;;;;;;;;;;;8.10;63.40;;;;;;4943572;29;20033;-88
2021/04/15 09:56:47;;;;;;;;;;;8.00;63.40;;;;;;4933402;28;19957;-87
2021/04/15 09:59:13;;;;;;;;;;;7.90;63.50;;;;;;4941964;29;19957;-88
2021/04/15 10:01:45;;;;;;;;;;;7.90;63.70;;;;;;4947265;29;19925;-87
2021/04/15 10:04:11;;;;;;;;;;;8.10;63.80;;;;;;4943302;29;19958;-89
2021/04/15 10:06:48;;;;;;;;;;;8.30;63.70;;;;;;4952833;28;19957;-88
2021/04/15 10:09:32;;;;;;;;;;;8.50;63.30;;;;;;4937002;29;19945;-85
2021/04/15 10:12:06;;;;;;;;;;;8.70;62.90;;;;;;4937138;28;19946;-86
2021/04/15 10:14:32;;;;;;;;;;;8.70;62.10;;;;;;4937009;29;19997;-85
2021/04/15 10:17:05;;;;;;;;;;;8.80;62.00;;;;;;4937624;29;20408;-85
2021/04/15 10:19:42;;;;;;;;;;;9.00;61.90;;;;;;4943101;28;19915;-86
2021/04/15 10:22:28;;;;;;;;;;;9.00;61.00;;;;;;4950549;29;19969;-86
2021/04/15 10:25:00;;;;;;;;;;;9.20;61.20;;;;;;4925803;29;19922;-87
2021/04/15 10:27:43;;;;;;;;;;;9.40;61.00;;;;;;4944959;29;19957;-89
2021/04/15 10:30:33;;;;;;;;;;;9.40;60.10;;;;;;4940334;29;19911;-85
2021/04/15 10:33:04;;;;;;;;;;;9.40;58.00;;;;;;4944727;28;19918;-87
2021/04/15 10:35:47;;;;;;;;;;;9.40;59.00;;;;;;4929580;29;19919;-88
2021/04/15 10:38:13;;;;;;;;;;;9.40;58.80;;;;;;4951445;28;19918;-88
2021/04/15 10:40:47;;;;;;;;;;;9.40;58.40;;;;;;4945244;28;19911;-90
2021/04/15 10:43:32;;;;;;;;;;;9.40;58.30;;;;;;4936582;29;20285;-88
2021/04/15 10:45:57;;;;;;;;;;;9.20;57.50;;;;;;4936845;28;20012;-88
2021/04/15 10:48:29;;;;;;;;;;;9.20;57.80;;;;;;4936626;29;20223;-88
2021/04/15 10:51:18;;;;;;;;;;;9.10;57.00;;;;;;4935751;29;20369;-88
2021/04/15 10:53:48;;;;;;;;;;;9.10;57.30;;;;;;4929321;29;19911;-89
2021/04/15 10:56:23;;;;;;;;;;;9.10;57.10;;;;;;4937307;29;19966;-87
2021/04/15 10:58:49;;;;;;;;;;;9.20;56.50;;;;;;4940725;28;19911;-88
2021/04/15 11:01:21;;;;;;;;;;;9.30;56.00;;;;;;4948343;28;19919;-87
2021/04/15 11:03:47;;;;;;;;;;;9.30;56.10;;;;;;4955370;28;20370;-87
2021/04/15 11:06:30;;;;;;;;;;;9.70;56.70;;;;;;4942987;29;19921;-87
2021/04/15 11:08:56;;;;;;;;;;;10.20;56.60;;;;;;4950748;28;19914;-91
2021/04/15 11:11:24;;;;;;;;;;;10.60;56.00;;;;;;4952267;29;19919;-91
2021/04/15 11:13:59;;;;;;;;;;;10.60;54.50;;;;;;4936113;29;19917;-90
2021/04/15 11:16:26;;;;;;;;;;;10.60;54.00;;;;;;4944916;29;19914;-93
2021/04/15 11:18:53;;;;;;;;;;;10.40;53.00;;;;;;4943075;28;19997;-92
2021/04/15 11:21:22;;;;;;;;;;;10.20;52.50;;;;;;4935539;29;19906;-92
2021/04/15 11:23:48;;;;;;;;;;;10.10;53.10;;;;;;4939377;29;19982;-91
2021/04/15 11:26:17;;;;;;;;;;;10.10;53.60;;;;;;4944598;29;19942;-89
2021/04/15 11:28:42;;;;;;;;;;;10.10;53.50;;;;;;4955902;28;19933;-91
2021/04/15 11:31:11;;;;;;;;;;;10.10;53.00;;;;;;4946759;28;20005;-91
2021/04/15 11:33:41;;;;;;;;;;;10.10;53.40;;;;;;4940897;28;19911;-90
2021/04/15 11:36:26;;;;;;;;;;;10.10;53.60;;;;;;4941979;29;19945;-92
2021/04/15 11:39:04;;;;;;;;;;;10.30;53.50;;;;;;4936639;28;19907;-93
2021/04/15 11:41:49;;;;;;;;;;;10.60;53.20;;;;;;4952401;28;19907;-93
2021/04/15 11:44:36;;;;;;;;;;;10.80;52.70;;;;;;4967673;28;19965;-91
2021/04/15 11:47:05;;;;;;;;;;;10.60;48.00;;;;;;4943103;29;19917;-91
2021/04/15 11:49:33;;;;;;;;;;;10.50;48.60;;;;;;4934803;29;19911;-92
2021/04/15 11:52:02;;;;;;;;;;;10.20;48.20;;;;;;4937711;29;20329;-93
2021/04/15 11:54:30;;;;;;;;;;;10.30;49.40;;;;;;4944992;28;19926;-96
2021/04/15 11:56:56;;;;;;;;;;;10.40;49.80;;;;;;4938752;29;19910;-93
2021/04/15 11:59:27;;;;;;;;;;;10.40;49.50;;;;;;4940640;28;19913;-92
2021/04/15 12:01:54;;;;;;;;;;;10.30;48.70;;;;;;4940097;29;19934;-92
2021/04/15 12:04:22;;;;;;;;;;;10.30;49.20;;;;;;4939858;29;20017;-92
2021/04/15 12:06:50;;;;;;;;;;;10.30;48.40;;;;;;4944915;29;19922;-89
2021/04/15 12:09:18;;;;;;;;;;;10.30;46.70;;;;;;4939214;29;19961;-90
2021/04/15 12:11:54;;;;;;;;;;;10.10;46.50;;;;;;4936360;28;19907;-93
2021/04/15 12:14:20;;;;;;;;;;;10.20;47.50;;;;;;4951839;28;20401;-92
2021/04/15 12:17:04;;;;;;;;;;;10.40;47.90;;;;;;4933237;29;19919;-90
2021/04/15 12:20:01;;;;;;;;;;;10.60;47.90;;;;;;4928230;29;20340;-93
2021/04/15 12:22:26;;;;;;;;;;;10.90;47.70;;;;;;4880633;29;19931;-91
2021/04/15 12:25:05;;;;;;;;;;;11.00;47.10;;;;;;4954420;28;20246;-93
2021/04/15 12:27:31;;;;;;;;;;;11.10;46.90;;;;;;4930839;29;19915;-94
2021/04/15 12:30:09;;;;;;;;;;;11.10;46.40;;;;;;4943004;29;19915;-92
2021/04/15 12:33:01;;;;;;;;;;;11.10;46.60;;;;;;4943950;29;19915;-93
2021/04/15 12:35:26;;;;;;;;;;;11.30;46.50;;;;;;4932912;28;19930;-90
2021/04/15 12:38:02;;;;;;;;;;;11.60;46.30;;;;;;4938578;29;20446;-89
2021/04/15 12:40:42;;;;;;;;;;;11.80;45.70;;;;;;4934863;28;19918;-93
2021/04/15 12:43:19;;;;;;;;;;;11.90;44.90;;;;;;4930132;29;19918;-94
2021/04/15 12:45:52;;;;;;;;;;;11.90;44.60;;;;;;4950541;28;19914;-91
2021/04/15 12:48:38;;;;;;;;;;;11.70;44.30;;;;;;4930683;29;20010;-90
2021/04/15 12:51:05;;;;;;;;;;;11.50;44.40;;;;;;4928755;29;20469;-90
2021/04/15 12:53:34;;;;;;;;;;;11.40;43.70;;;;;;4926398;29;19921;-92
2021/04/15 12:56:00;;;;;;;;;;;11.20;44.30;;;;;;4935971;29;19942;-88
2021/04/15 12:58:25;;;;;;;;;;;11.10;43.80;;;;;;4926422;29;19976;-93
2021/04/15 13:00:54;;;;;;;;;;;10.90;43.20;;;;;;4935130;29;19923;-92
2021/04/15 13:03:20;;;;;;;;;;;10.90;44.40;;;;;;4934190;29;19930;-91
2021/04/15 13:05:49;;;;;;;;;;;10.90;44.60;;;;;;4933552;29;20242;-90
2021/04/15 13:08:22;;;;;;;;;;;11.00;44.80;;;;;;4941258;28;19917;-91
2021/04/15 13:10:50;;;;;;;;;;;11.00;44.00;;;;;;4944635;29;19915;-93
2021/04/15 13:13:42;;;;;;;;;;;10.80;42.40;;;;;;4938106;29;19911;-92
2021/04/15 13:16:26;;;;;;;;;;;10.80;43.50;;;;;;4933474;29;19911;-91
2021/04/15 13:18:52;;;;;;;;;;;11.00;43.90;;;;;;4950970;28;19911;-91
2021/04/15 13:21:31;;;;;;;;;;;11.10;44.10;;;;;;4938461;29;19917;-91
2021/04/15 13:23:58;;;;;;;;;;;11.10;43.50;;;;;;4934955;28;20005;-92
2021/04/15 13:26:26;;;;;;;;;;;11.10;43.70;;;;;;4938532;28;19911;-91
2021/04/15 13:28:51;;;;;;;;;;;11.10;43.80;;;;;;4935677;29;19924;-91
2021/04/15 13:31:36;;;;;;;;;;;11.20;44.10;;;;;;4929557;29;19966;-92
2021/04/15 13:34:02;;;;;;;;;;;11.20;44.30;;;;;;4939588;28;20286;-92
2021/04/15 13:36:28;;;;;;;;;;;11.20;42.80;;;;;;4929091;29;19911;-91
2021/04/15 13:38:56;;;;;;;;;;;11.30;43.20;;;;;;4925069;28;20401;-92
2021/04/15 13:41:23;;;;;;;;;;;11.70;43.20;;;;;;4931289;29;20309;-92
2021/04/15 13:44:10;;;;;;;;;;;11.90;41.40;;;;;;4940106;28;19974;-92
2021/04/15 13:46:38;;;;;;;;;;;11.80;40.50;;;;;;4932362;29;19930;-91
2021/04/15 13:49:15;;;;;;;;;;;11.80;40.50;;;;;;4937112;29;19965;-93
2021/04/15 13:51:48;;;;;;;;;;;11.90;41.00;;;;;;4922686;29;19935;-93
2021/04/15 13:54:13;;;;;;;;;;;12.00;41.40;;;;;;4942770;28;20017;-91
2021/04/15 13:56:58;;;;;;;;;;;12.00;40.70;;;;;;4931239;29;20374;-91
2021/04/15 13:59:48;;;;;;;;;;;11.90;40.10;;;;;;4928036;29;19914;-91
2021/04/15 14:02:14;;;;;;;;;;;11.50;37.50;;;;;;4931582;28;19919;-91
2021/04/15 14:04:39;;;;;;;;;;;11.20;38.40;;;;;;4937958;29;19915;-94
2021/04/15 14:07:23;;;;;;;;;;;11.30;38.40;;;;;;4935816;28;19907;-91
2021/04/15 14:09:49;;;;;;;;;;;11.70;39.70;;;;;;4934959;28;19914;-91
2021/04/15 14:12:34;;;;;;;;;;;11.90;38.40;;;;;;4930667;29;20005;-94
2021/04/15 14:15:00;;;;;;;;;;;12.10;38.70;;;;;;4953031;28;19914;-92
2021/04/15 14:17:27;;;;;;;;;;;12.50;38.50;;;;;;4933045;29;19911;-92
2021/04/15 14:20:00;;;;;;;;;;;12.60;38.10;;;;;;4940898;29;19914;-93
2021/04/15 14:22:26;;;;;;;;;;;12.50;37.70;;;;;;4941181;29;19914;-93
2021/04/15 14:24:53;;;;;;;;;;;12.70;38.30;;;;;;4934929;28;20014;-93
2021/04/15 14:27:20;;;;;;;;;;;12.70;37.00;;;;;;4934272;29;20001;-94
2021/04/15 14:29:47;;;;;;;;;;;12.50;36.20;;;;;;4934777;28;19926;-91
2021/04/15 14:32:18;;;;;;;;;;;12.40;36.80;;;;;;4933621;28;19953;-94
2021/04/15 14:34:45;;;;;;;;;;;12.50;37.20;;;;;;4950836;28;20017;-96
2021/04/15 14:37:15;;;;;;;;;;;12.80;37.90;;;;;;4919984;29;19926;-96
2021/04/15 14:39:42;;;;;;;;;;;12.70;36.70;;;;;;4938979;29;20267;-94
2021/04/15 14:42:10;;;;;;;;;;;12.60;36.70;;;;;;4934672;29;19918;-95
2021/04/15 14:44:37;;;;;;;;;;;12.30;35.70;;;;;;4946431;28;19926;-94
2021/04/15 14:47:03;;;;;;;;;;;12.10;37.10;;;;;;4946868;28;19918;-94
2021/04/15 14:49:34;;;;;;;;;;;12.10;37.80;;;;;;4935719;28;19915;-89
2021/04/15 14:52:08;;;;;;;;;;;12.10;38.20;;;;;;4944050;29;19914;-90
2021/04/15 14:54:35;;;;;;;;;;;12.10;38.50;;;;;;4948377;28;19911;-88
2021/04/15 14:57:01;;;;;;;;;;;12.00;38.90;;;;;;4941365;29;19997;-90